createdAt,value
2019-04-14T00:02:33.645Z,36.33
2019-04-14T00:05:56.365Z,36.93
2019-04-14T00:08:26.354Z,35.77
2019-04-14T00:10:57.173Z,37.30
2019-04-14T00:13:28.548Z,37.07
2019-04-14T00:15:58.854Z,37.53
2019-04-14T00:18:29.435Z,37.30
2019-04-14T00:20:59.842Z,38.73
2019-04-14T00:23:30.449Z,38.00
2019-04-14T00:26:18.414Z,37.83
2019-04-14T00:28:49.064Z,37.17
2019-04-14T00:31:19.494Z,38.07
2019-04-14T00:33:49.891Z,39.13
2019-04-14T00:36:37.268Z,37.93
2019-04-14T00:39:18.298Z,37.90
2019-04-14T00:41:58.632Z,37.00
2019-04-14T00:44:45.274Z,38.17
2019-04-14T00:47:22.189Z,37.23
2019-04-14T00:49:53.020Z,39.20
2019-04-14T00:52:23.502Z,36.80
2019-04-14T00:54:54.342Z,36.60
2019-04-14T00:57:26.778Z,39.00
2019-04-14T00:59:57.348Z,38.47
2019-04-14T01:02:27.707Z,38.03
2019-04-14T01:04:57.757Z,38.00
2019-04-14T01:07:28.366Z,39.13
2019-04-14T01:09:59.696Z,38.60
2019-04-14T01:12:30.046Z,38.00
2019-04-14T01:15:00.776Z,37.77
2019-04-14T01:17:33.074Z,37.87
2019-04-14T01:20:03.641Z,37.63
2019-04-14T01:22:35.853Z,36.50
2019-04-14T01:25:08.467Z,39.80
2019-04-14T01:27:38.520Z,37.63
2019-04-14T01:30:08.837Z,38.37
2019-04-14T01:32:39.427Z,38.87
2019-04-14T01:35:09.671Z,39.13
2019-04-14T01:37:39.789Z,38.37
2019-04-14T01:40:12.089Z,38.70
2019-04-14T01:42:42.213Z,38.73
2019-04-14T01:45:14.269Z,39.13
2019-04-14T01:47:44.529Z,39.53
2019-04-14T01:50:15.057Z,37.87
2019-04-14T01:52:52.220Z,38.93
2019-04-14T01:55:48.301Z,39.90
2019-04-14T01:58:21.067Z,39.87
2019-04-14T02:01:11.166Z,39.57
2019-04-14T02:03:41.154Z,39.20
2019-04-14T02:06:11.424Z,39.90
2019-04-14T02:08:41.565Z,40.67
2019-04-14T02:11:13.689Z,39.40
2019-04-14T02:13:44.321Z,40.53
2019-04-14T02:16:23.663Z,39.27
2019-04-14T02:18:47.016Z,39.13
2019-04-14T02:21:17.683Z,39.67
2019-04-14T02:23:47.600Z,40.33
2019-04-14T02:26:17.695Z,40.70
2019-04-14T02:28:48.261Z,40.00
2019-04-14T02:31:39.225Z,40.73
2019-04-14T02:36:48.382Z,41.80
2019-04-14T02:39:22.338Z,40.57
2019-04-14T02:42:00.364Z,41.80
2019-04-14T02:47:00.988Z,41.80
2019-04-14T02:49:34.921Z,41.97
2019-04-14T02:51:56.619Z,44.13
2019-04-14T02:54:36.067Z,44.00
2019-04-14T02:57:03.545Z,43.20
2019-04-14T02:59:36.253Z,45.40
2019-04-14T03:04:33.510Z,44.70
2019-04-14T03:09:42.468Z,46.70
2019-04-14T03:12:09.712Z,46.53
2019-04-14T03:14:47.977Z,45.73
2019-04-14T03:17:29.130Z,46.40
2019-04-14T03:20:14.029Z,46.37
2019-04-14T03:22:49.894Z,47.00
2019-04-14T03:25:37.610Z,46.60
2019-04-14T03:28:51.268Z,45.80
2019-04-14T03:37:15.647Z,46.40
2019-04-14T03:44:09.974Z,46.60
2019-04-14T03:49:10.028Z,45.17
2019-04-14T03:51:39.582Z,44.93
2019-04-14T03:53:58.827Z,45.83
2019-04-14T03:56:27.051Z,46.27
2019-04-14T03:58:57.677Z,45.63
2019-04-14T04:01:28.010Z,45.63
2019-04-14T04:03:58.556Z,44.43
2019-04-14T04:06:29.257Z,46.00
2019-04-14T04:08:59.655Z,45.17
2019-04-14T04:11:30.133Z,43.77
2019-04-14T04:14:00.692Z,45.13
2019-04-14T04:16:50.800Z,43.67
2019-04-14T04:19:29.696Z,41.70
2019-04-14T04:22:19.320Z,43.10
2019-04-14T04:24:55.033Z,41.50
2019-04-14T04:27:37.561Z,41.63
2019-04-14T04:30:12.448Z,42.37
2019-04-14T04:33:00.504Z,41.63
2019-04-14T04:35:41.392Z,42.67
2019-04-14T04:38:20.180Z,40.97
2019-04-14T04:40:51.284Z,42.53
2019-04-14T04:43:21.184Z,40.77
2019-04-14T04:45:51.667Z,40.10
2019-04-14T04:48:21.830Z,38.53
2019-04-14T04:50:52.094Z,40.33
2019-04-14T04:53:22.406Z,40.23
2019-04-14T04:55:52.507Z,38.27
2019-04-14T04:58:22.406Z,39.17
2019-04-14T05:00:54.188Z,38.93
2019-04-14T05:03:23.816Z,38.30
2019-04-14T05:06:11.303Z,38.63
2019-04-14T05:08:48.107Z,39.77
2019-04-14T05:11:27.335Z,38.70
2019-04-14T05:14:00.066Z,38.33
2019-04-14T05:16:30.299Z,38.10
2019-04-14T05:19:12.203Z,39.07
2019-04-14T05:21:32.161Z,38.53
2019-04-14T05:24:02.792Z,36.63
2019-04-14T05:26:33.095Z,38.10
2019-04-14T05:29:03.593Z,36.73
2019-04-14T05:31:33.706Z,38.77
2019-04-14T05:34:04.392Z,39.00
2019-04-14T05:36:34.667Z,40.03
2019-04-14T05:39:06.867Z,37.50
2019-04-14T05:41:37.577Z,38.87
2019-04-14T05:44:07.938Z,37.63
2019-04-14T05:46:38.178Z,37.80
2019-04-14T05:49:08.604Z,36.97
2019-04-14T05:51:39.350Z,35.97
2019-04-14T05:54:09.999Z,38.20
2019-04-14T05:56:40.741Z,34.63
2019-04-14T05:59:11.706Z,33.20
2019-04-14T06:01:42.083Z,33.87
2019-04-14T06:04:13.606Z,35.70
2019-04-14T06:06:43.596Z,33.57
2019-04-14T06:09:13.746Z,34.87
2019-04-14T06:11:43.631Z,34.97
2019-04-14T06:14:13.812Z,35.13
2019-04-14T06:16:43.625Z,35.37
2019-04-14T06:19:13.446Z,34.10
2019-04-14T06:21:43.267Z,33.87
2019-04-14T06:24:13.069Z,35.00
2019-04-14T06:26:42.948Z,35.83
2019-04-14T06:29:13.095Z,35.90
2019-04-14T06:31:53.775Z,35.13
2019-04-14T06:34:28.422Z,34.77
2019-04-14T06:37:04.283Z,36.87
2019-04-14T06:39:37.278Z,33.37
2019-04-14T06:42:07.213Z,34.17
2019-04-14T06:44:37.069Z,33.60
2019-04-14T06:47:06.859Z,33.53
2019-04-14T06:49:48.201Z,33.40
2019-04-14T06:52:08.277Z,33.97
2019-04-14T06:54:38.022Z,33.63
2019-04-14T06:57:07.844Z,33.87
2019-04-14T06:59:37.732Z,34.60
2019-04-14T07:02:08.707Z,31.53
2019-04-14T07:04:38.666Z,32.77
2019-04-14T07:07:09.706Z,32.20
2019-04-14T07:09:42.155Z,32.40
2019-04-14T07:12:12.159Z,31.30
2019-04-14T07:14:42.206Z,33.17
2019-04-14T07:17:11.941Z,33.23
2019-04-14T07:19:41.813Z,32.43
2019-04-14T07:22:12.536Z,30.40
2019-04-14T07:24:42.356Z,31.43
2019-04-14T07:27:12.186Z,30.27
2019-04-14T07:29:54.226Z,30.40
2019-04-14T07:32:43.172Z,28.60
2019-04-14T07:35:31.006Z,28.23
2019-04-14T07:38:10.342Z,28.17
2019-04-14T07:41:03.175Z,28.57
2019-04-14T07:43:52.201Z,28.43
2019-04-14T07:46:52.710Z,29.17
2019-04-14T07:49:47.786Z,28.10
2019-04-14T07:52:43.178Z,29.83
2019-04-14T07:55:25.712Z,28.37
2019-04-14T07:58:26.852Z,30.37
2019-04-14T08:01:04.749Z,27.80
2019-04-14T08:03:52.667Z,28.43
2019-04-14T08:06:22.559Z,28.43
2019-04-14T08:08:52.394Z,28.33
2019-04-14T08:11:22.254Z,28.80
2019-04-14T08:13:52.087Z,27.77
2019-04-14T08:16:21.964Z,27.42
2019-04-14T08:18:52.153Z,27.32
2019-04-14T08:21:22.372Z,26.75
2019-04-14T08:23:52.276Z,27.32
2019-04-14T08:26:22.542Z,25.23
2019-04-14T08:28:52.421Z,25.40
2019-04-14T08:31:22.286Z,26.73
2019-04-14T08:33:52.480Z,26.50
2019-04-14T08:36:22.367Z,25.08
2019-04-14T08:38:52.154Z,24.20
2019-04-14T08:41:21.964Z,26.00
2019-04-14T08:44:29.333Z,24.90
2019-04-14T08:47:33.449Z,24.25
2019-04-14T08:50:22.423Z,26.27
2019-04-14T08:53:03.085Z,25.02
2019-04-14T08:55:50.731Z,24.80
2019-04-14T08:58:27.891Z,24.55
2019-04-14T09:01:09.995Z,23.62
2019-04-14T09:04:17.478Z,22.82
2019-04-14T09:06:58.161Z,23.38
2019-04-14T09:09:35.069Z,23.02
2019-04-14T09:12:15.911Z,21.30
2019-04-14T09:14:42.792Z,21.20
2019-04-14T09:17:12.697Z,21.62
2019-04-14T09:19:42.619Z,22.58
2019-04-14T09:22:12.498Z,21.40
2019-04-14T09:24:42.460Z,20.77
2019-04-14T09:27:12.333Z,19.75
2019-04-14T09:29:42.172Z,20.60
2019-04-14T09:32:12.956Z,20.15
2019-04-14T09:34:42.769Z,19.73
2019-04-14T09:37:13.108Z,18.90
2019-04-14T09:39:43.008Z,17.95
2019-04-14T09:42:12.892Z,17.02
2019-04-14T09:44:43.013Z,18.67
2019-04-14T09:47:13.538Z,17.30
2019-04-14T09:49:43.438Z,17.32
2019-04-14T09:52:13.326Z,17.10
2019-04-14T09:54:43.145Z,16.97
2019-04-14T09:57:12.933Z,17.52
2019-04-14T09:59:43.146Z,16.70
2019-04-14T10:02:13.823Z,15.80
2019-04-14T10:04:44.015Z,16.70
2019-04-14T10:07:13.809Z,15.63
2019-04-14T10:09:43.709Z,15.05
2019-04-14T10:12:13.641Z,16.30
2019-04-14T10:14:43.529Z,16.15
2019-04-14T10:17:13.336Z,15.78
2019-04-14T10:19:43.205Z,15.03
2019-04-14T10:22:13.000Z,13.85
2019-04-14T10:24:42.799Z,14.25
2019-04-14T10:27:13.081Z,13.90
2019-04-14T10:29:42.972Z,14.55
2019-04-14T10:32:12.852Z,14.28
2019-04-14T10:34:42.674Z,14.35
2019-04-14T10:37:12.527Z,15.00
2019-04-14T10:39:42.688Z,13.70
2019-04-14T10:42:12.589Z,14.30
2019-04-14T10:44:42.728Z,14.70
2019-04-14T10:47:12.640Z,15.00
2019-04-14T10:49:42.854Z,13.45
2019-04-14T10:52:12.741Z,13.70
2019-04-14T10:54:43.810Z,13.72
2019-04-14T10:57:13.722Z,14.60
2019-04-14T10:59:43.592Z,13.85
2019-04-14T11:02:14.086Z,14.73
2019-04-14T11:04:44.299Z,14.80
2019-04-14T11:07:24.290Z,14.10
2019-04-14T11:09:54.164Z,13.28
2019-04-14T11:12:23.975Z,12.98
2019-04-14T11:14:53.869Z,13.75
2019-04-14T11:17:23.729Z,13.85
2019-04-14T11:19:53.626Z,13.88
2019-04-14T11:22:23.373Z,13.43
2019-04-14T11:24:53.429Z,13.03
2019-04-14T11:27:23.318Z,13.40
2019-04-14T11:29:54.129Z,14.03
2019-04-14T11:32:49.286Z,13.50
2019-04-14T11:35:38.289Z,13.32
2019-04-14T11:38:13.836Z,13.55
2019-04-14T11:40:47.512Z,13.43
2019-04-14T11:43:18.078Z,13.20
2019-04-14T11:45:48.266Z,13.05
2019-04-14T11:48:18.333Z,12.80
2019-04-14T11:50:48.296Z,12.67
2019-04-14T11:53:18.113Z,13.00
2019-04-14T11:55:47.989Z,13.30
2019-04-14T11:58:17.863Z,12.68
2019-04-14T12:01:22.332Z,12.75
2019-04-14T12:04:17.782Z,12.73
2019-04-14T12:06:54.906Z,13.67
2019-04-14T12:09:28.005Z,13.50
2019-04-14T12:11:57.890Z,13.28
2019-04-14T12:14:27.682Z,12.73
2019-04-14T12:16:57.858Z,12.63
2019-04-14T12:19:28.714Z,13.35
2019-04-14T12:22:08.138Z,12.82
2019-04-14T12:24:30.052Z,12.70
2019-04-14T12:26:59.944Z,13.57
2019-04-14T12:29:30.476Z,13.67
2019-04-14T12:32:01.672Z,13.03
2019-04-14T12:34:31.758Z,12.47
2019-04-14T12:37:01.678Z,13.93
2019-04-14T12:39:32.167Z,13.07
2019-04-14T12:42:36.362Z,13.13
2019-04-14T12:45:26.193Z,12.40
2019-04-14T12:48:02.761Z,13.93
2019-04-14T12:50:38.719Z,13.90
2019-04-14T12:53:08.689Z,13.70
2019-04-14T12:55:39.110Z,13.20
2019-04-14T12:58:11.326Z,13.37
2019-04-14T13:00:47.876Z,13.90
2019-04-14T13:03:18.219Z,12.67
2019-04-14T13:05:48.526Z,14.13
2019-04-14T13:08:18.388Z,13.10
2019-04-14T13:10:48.653Z,12.57
2019-04-14T13:13:18.550Z,13.80
2019-04-14T13:15:48.471Z,13.80
2019-04-14T13:18:18.272Z,14.07
2019-04-14T13:20:48.141Z,13.23
2019-04-14T13:23:18.229Z,13.70
2019-04-14T13:25:48.120Z,13.20
2019-04-14T13:28:17.920Z,12.90
2019-04-14T13:30:49.539Z,12.73
2019-04-14T13:33:19.416Z,14.30
2019-04-14T13:35:49.321Z,14.33
2019-04-14T13:38:19.186Z,14.20
2019-04-14T13:40:49.016Z,13.30
2019-04-14T13:43:18.848Z,13.45
2019-04-14T13:45:48.685Z,13.37
2019-04-14T13:48:18.627Z,13.60
2019-04-14T13:50:48.724Z,14.07
2019-04-14T13:53:18.521Z,14.50
2019-04-14T13:55:48.342Z,14.30
2019-04-14T13:58:18.151Z,15.40
2019-04-14T14:00:48.774Z,15.47
2019-04-14T14:03:18.633Z,14.97
2019-04-14T14:05:48.534Z,14.17
2019-04-14T14:08:18.747Z,14.73
2019-04-14T14:10:48.725Z,13.93
2019-04-14T14:13:31.799Z,15.37
2019-04-14T14:16:24.032Z,15.10
2019-04-14T14:18:57.853Z,14.93
2019-04-14T14:21:46.818Z,14.47
2019-04-14T14:24:33.122Z,15.30
2019-04-14T14:27:04.015Z,15.97
2019-04-14T14:29:33.915Z,15.43
2019-04-14T14:32:05.779Z,14.33
2019-04-14T14:34:35.588Z,14.97
2019-04-14T14:37:05.660Z,14.63
2019-04-14T14:39:35.766Z,14.60
2019-04-14T14:42:06.747Z,15.43
2019-04-14T14:44:44.253Z,14.87
2019-04-14T14:47:23.234Z,14.47
2019-04-14T14:50:03.821Z,14.60
2019-04-14T14:52:34.661Z,14.17
2019-04-14T14:55:05.246Z,14.60
2019-04-14T14:57:35.131Z,14.97
2019-04-14T15:00:08.000Z,14.67
2019-04-14T15:02:38.501Z,13.87
2019-04-14T15:05:08.798Z,14.07
2019-04-14T15:07:39.019Z,13.50
2019-04-14T15:10:08.921Z,14.40
2019-04-14T15:12:38.603Z,13.63
2019-04-14T15:15:08.297Z,14.60
2019-04-14T15:17:37.836Z,14.50
2019-04-14T15:20:07.388Z,14.23
2019-04-14T15:22:37.223Z,13.97
2019-04-14T15:25:07.167Z,14.30
2019-04-14T15:27:36.800Z,14.97
2019-04-14T15:30:08.143Z,15.67
2019-04-14T15:32:37.676Z,14.70
2019-04-14T15:35:07.292Z,13.80
2019-04-14T15:37:37.146Z,14.93
2019-04-14T15:40:06.832Z,13.87
2019-04-14T15:42:36.393Z,15.80
2019-04-14T15:45:06.371Z,13.70
2019-04-14T15:47:35.892Z,14.30
2019-04-14T15:50:07.268Z,14.90
2019-04-14T15:52:37.197Z,15.00
2019-04-14T15:55:07.382Z,14.43
2019-04-14T15:57:59.241Z,15.17
2019-04-14T16:00:51.678Z,17.37
2019-04-14T16:03:32.980Z,15.20
2019-04-14T16:06:28.681Z,15.87
2019-04-14T16:09:10.231Z,15.40
2019-04-14T16:12:06.743Z,15.40
2019-04-14T16:14:58.593Z,14.80
2019-04-14T16:17:53.548Z,14.03
2019-04-14T16:20:26.740Z,14.07
2019-04-14T16:22:56.438Z,13.70
2019-04-14T16:25:38.239Z,14.10
2019-04-14T16:28:16.407Z,13.47
2019-04-14T16:31:08.392Z,14.40
2019-04-14T16:33:57.100Z,15.20
2019-04-14T16:36:26.633Z,13.83
2019-04-14T16:38:56.871Z,14.47
2019-04-14T16:41:26.399Z,15.97
2019-04-14T16:43:56.315Z,14.77
2019-04-14T16:46:25.884Z,16.17
2019-04-14T16:48:55.856Z,15.70
2019-04-14T16:51:30.113Z,16.07
2019-04-14T16:54:03.883Z,17.03
2019-04-14T16:56:48.396Z,15.93
2019-04-14T16:59:18.096Z,15.80
2019-04-14T17:01:48.629Z,15.50
2019-04-14T17:04:18.194Z,16.20
2019-04-14T17:06:48.170Z,15.80
2019-04-14T17:09:17.780Z,15.93
2019-04-14T17:11:47.387Z,16.53
2019-04-14T17:14:36.093Z,16.10
2019-04-14T17:17:30.459Z,15.27
2019-04-14T17:20:05.999Z,15.90
2019-04-14T17:22:49.587Z,15.13
2019-04-14T17:25:41.239Z,15.07
2019-04-14T17:28:35.960Z,15.33
2019-04-14T17:31:13.242Z,15.17
2019-04-14T17:33:55.206Z,14.30
2019-04-14T17:36:56.304Z,15.17
2019-04-14T17:39:31.778Z,14.90
2019-04-14T17:42:20.869Z,13.53
2019-04-14T17:45:08.517Z,14.00
2019-04-14T17:47:44.451Z,14.10
2019-04-14T17:50:40.820Z,15.17
2019-04-14T17:53:31.103Z,14.83
2019-04-14T17:56:13.910Z,14.53
2019-04-14T17:59:02.694Z,15.40
2019-04-14T18:01:54.664Z,14.50
2019-04-14T18:04:32.988Z,13.57
2019-04-14T18:07:07.711Z,12.90
2019-04-14T18:09:55.294Z,13.27
2019-04-14T18:12:33.764Z,12.97
2019-04-14T18:15:34.885Z,13.00
2019-04-14T18:18:22.405Z,12.77
2019-04-14T18:20:55.419Z,13.60
2019-04-14T18:23:25.273Z,14.17
2019-04-14T18:25:55.141Z,14.03
2019-04-14T18:28:46.969Z,12.77
2019-04-14T18:31:38.514Z,14.00
2019-04-14T18:34:18.981Z,14.33
2019-04-14T18:36:53.396Z,14.80
2019-04-14T18:39:40.786Z,13.67
2019-04-14T18:42:18.475Z,13.57
2019-04-14T18:45:15.785Z,14.83
2019-04-14T18:47:47.837Z,13.70
2019-04-14T18:50:29.711Z,15.37
2019-04-14T18:53:19.316Z,14.77
2019-04-14T18:56:08.572Z,14.30
2019-04-14T18:58:50.036Z,14.83
2019-04-14T19:01:26.492Z,14.13
2019-04-14T19:03:58.533Z,14.57
2019-04-14T19:06:47.636Z,14.47
2019-04-14T19:09:19.190Z,14.43
2019-04-14T19:12:24.827Z,14.00
2019-04-14T19:15:21.679Z,14.20
2019-04-14T19:18:19.481Z,14.07
2019-04-14T19:20:56.524Z,13.70
2019-04-14T19:24:23.524Z,14.27
2019-04-14T19:26:10.394Z,13.63
2019-04-14T19:28:51.015Z,15.20
2019-04-14T19:31:35.098Z,14.63
2019-04-14T19:34:08.636Z,14.97
2019-04-14T19:36:49.365Z,14.73
2019-04-14T19:39:25.894Z,15.20
2019-04-14T19:41:57.851Z,15.37
2019-04-14T19:44:29.453Z,14.97
2019-04-14T19:47:04.768Z,13.73
2019-04-14T19:49:46.594Z,14.07
2019-04-14T19:52:21.157Z,14.90
2019-04-14T19:54:57.058Z,14.87
2019-04-14T19:57:31.508Z,14.37
2019-04-14T20:00:01.782Z,14.53
2019-04-14T20:02:33.688Z,15.17
2019-04-14T20:05:06.256Z,15.23
2019-04-14T20:07:39.666Z,14.70
2019-04-14T20:10:15.920Z,15.13
2019-04-14T20:12:50.959Z,15.03
2019-04-14T20:15:30.899Z,14.33
2019-04-14T20:18:19.978Z,15.20
2019-04-14T20:21:13.838Z,14.23
2019-04-14T20:24:39.274Z,14.57
2019-04-14T20:27:38.243Z,14.20
2019-04-14T20:30:19.515Z,14.97
2019-04-14T20:32:57.855Z,14.83
2019-04-14T20:35:31.421Z,14.40
2019-04-14T20:38:04.950Z,13.83
2019-04-14T20:40:48.590Z,14.73
2019-04-14T20:43:21.173Z,13.77
2019-04-14T20:46:01.062Z,13.77
2019-04-14T20:48:36.466Z,13.43
2019-04-14T20:51:16.826Z,12.70
2019-04-14T20:53:57.395Z,12.73
2019-04-14T20:56:37.840Z,12.33
2019-04-14T20:59:06.480Z,12.23
2019-04-14T21:02:06.751Z,11.43
2019-04-14T21:05:03.947Z,11.30
2019-04-14T21:08:09.508Z,10.07
2019-04-14T21:11:16.234Z,10.30
2019-04-14T21:14:20.882Z,9.87
2019-04-14T21:17:09.848Z,10.27
2019-04-14T21:19:59.317Z,10.10
2019-04-14T21:22:43.550Z,9.77
2019-04-14T21:25:59.305Z,9.60
2019-04-14T21:28:26.760Z,10.03
2019-04-14T21:31:09.528Z,9.87
2019-04-14T21:34:02.176Z,10.10
2019-04-14T21:36:58.033Z,10.20
2019-04-14T21:39:57.186Z,10.40
2019-04-14T21:42:36.291Z,10.17
2019-04-14T21:45:15.344Z,10.80
2019-04-14T21:48:00.375Z,10.27
2019-04-14T21:50:36.082Z,9.90
2019-04-14T21:53:12.127Z,9.80
2019-04-14T21:55:56.578Z,9.50
2019-04-14T21:58:46.392Z,9.10
2019-04-14T22:01:53.849Z,9.50
2019-04-14T22:04:46.197Z,9.50
2019-04-14T22:07:42.586Z,9.60
2019-04-14T22:10:35.280Z,10.00
2019-04-14T22:13:15.030Z,10.20
2019-04-14T22:15:48.013Z,9.53
2019-04-14T22:18:19.790Z,9.77
2019-04-14T22:20:56.558Z,9.90
2019-04-14T22:23:32.001Z,9.60
2019-04-14T22:26:10.524Z,9.63
2019-04-14T22:28:46.157Z,10.27
2019-04-14T22:31:24.592Z,9.80
2019-04-14T22:33:54.391Z,10.33
2019-04-14T22:36:37.407Z,9.77
2019-04-14T22:39:12.657Z,10.50
2019-04-14T22:41:51.473Z,10.20
2019-04-14T22:44:24.888Z,10.70
2019-04-14T22:46:57.753Z,10.63
2019-04-14T22:49:28.200Z,11.30
2019-04-14T22:52:12.237Z,10.30
2019-04-14T22:54:48.810Z,10.47
2019-04-14T22:57:21.898Z,11.07
2019-04-14T22:59:54.962Z,10.37
2019-04-14T23:03:10.062Z,10.80
2019-04-14T23:06:03.624Z,11.20
2019-04-14T23:08:50.137Z,10.63
2019-04-14T23:11:47.335Z,11.97
2019-04-14T23:14:41.730Z,11.97
2019-04-14T23:17:43.647Z,13.30
2019-04-14T23:20:41.926Z,12.13
2019-04-14T23:23:31.865Z,12.13
2019-04-14T23:26:10.195Z,12.63
2019-04-14T23:28:43.195Z,12.40
2019-04-14T23:31:19.663Z,12.47
2019-04-14T23:34:02.989Z,13.20
2019-04-14T23:36:38.845Z,12.90
2019-04-14T23:39:12.449Z,12.50
2019-04-14T23:41:50.351Z,12.53
2019-04-14T23:44:24.690Z,13.60
2019-04-14T23:46:56.940Z,13.00
2019-04-14T23:49:32.997Z,13.40
2019-04-14T23:52:06.903Z,12.90
2019-04-14T23:54:47.351Z,13.80
2019-04-14T23:57:22.302Z,13.17
2019-04-14T23:59:58.670Z,12.97
